createdAt,value
2023-02-22T00:01:15.500Z,0.10
2023-02-22T00:03:43.009Z,0.17
2023-02-22T00:06:34.483Z,0.10
2023-02-22T00:09:04.872Z,0.10
2023-02-22T00:11:31.813Z,0.20
2023-02-22T00:14:02.495Z,0.10
2023-02-22T00:16:30.176Z,0.00
2023-02-22T00:18:57.050Z,0.17
2023-02-22T00:21:26.472Z,0.10
2023-02-22T00:23:53.229Z,0.10
2023-02-22T00:26:22.361Z,0.15
2023-02-22T00:28:52.812Z,0.10
2023-02-22T00:31:21.619Z,0.10
2023-02-22T00:33:49.693Z,0.10
2023-02-22T00:36:17.413Z,0.20
2023-02-22T00:38:44.210Z,0.10
2023-02-22T00:41:12.516Z,0.20
2023-02-22T00:43:43.046Z,0.17
2023-02-22T00:46:10.014Z,0.10
2023-02-22T00:49:02.410Z,0.20
2023-02-22T00:51:29.852Z,0.10
2023-02-22T00:54:00.599Z,0.20
2023-02-22T00:56:27.493Z,0.10
2023-02-22T00:58:55.190Z,0.08
2023-02-22T01:01:23.610Z,0.20
2023-02-22T01:03:50.410Z,0.10
2023-02-22T01:06:22.049Z,0.10
2023-02-22T01:08:49.253Z,0.10
2023-02-22T01:11:18.703Z,0.10
2023-02-22T01:13:45.995Z,0.10
2023-02-22T01:16:13.528Z,0.10
2023-02-22T01:18:40.731Z,0.20
2023-02-22T01:21:07.610Z,0.03
2023-02-22T01:23:39.503Z,0.40
2023-02-22T01:26:06.657Z,0.10
2023-02-22T01:28:38.455Z,0.20
2023-02-22T01:31:05.712Z,0.10
2023-02-22T01:33:32.944Z,0.10
2023-02-22T01:36:02.465Z,0.10
2023-02-22T01:38:29.270Z,0.10
2023-02-22T01:40:56.432Z,0.10
2023-02-22T01:43:30.327Z,0.10
2023-02-22T01:46:23.622Z,0.10
2023-02-22T01:49:03.661Z,0.10
2023-02-22T01:51:40.255Z,0.10
2023-02-22T01:54:13.848Z,0.10
2023-02-22T01:56:50.500Z,0.10
2023-02-22T01:59:21.852Z,0.10
2023-02-22T02:01:49.798Z,0.13
2023-02-22T02:04:21.114Z,0.32
2023-02-22T02:06:48.696Z,0.15
2023-02-22T02:09:37.686Z,0.10
2023-02-22T02:12:08.089Z,0.20
2023-02-22T02:14:34.976Z,0.10
2023-02-22T02:17:01.889Z,0.10
2023-02-22T02:19:42.869Z,0.10
2023-02-22T02:22:37.753Z,0.15
2023-02-22T02:25:19.512Z,0.20
2023-02-22T02:28:32.085Z,0.10
2023-02-22T02:31:39.845Z,0.10
2023-02-22T02:34:30.227Z,0.10
2023-02-22T02:37:33.489Z,0.20
2023-02-22T02:40:29.957Z,0.10
2023-02-22T02:43:31.478Z,0.10
2023-02-22T02:46:09.860Z,0.10
2023-02-22T02:48:42.430Z,0.10
2023-02-22T02:51:12.017Z,0.15
2023-02-22T02:54:08.513Z,0.30
2023-02-22T02:56:36.048Z,0.10
2023-02-22T02:59:02.959Z,0.20
2023-02-22T03:01:39.487Z,0.10
2023-02-22T03:04:59.022Z,0.20
2023-02-22T03:11:27.487Z,0.10
2023-02-22T03:14:05.403Z,0.10
2023-02-22T03:16:51.658Z,0.20
2023-02-22T03:19:35.952Z,0.10
2023-02-22T03:22:30.470Z,0.30
2023-02-22T03:25:33.374Z,0.10
2023-02-22T03:28:07.521Z,0.10
2023-02-22T03:30:47.747Z,0.17
2023-02-22T03:33:27.788Z,0.10
2023-02-22T03:36:00.910Z,0.20
2023-02-22T03:38:36.456Z,0.20
2023-02-22T03:41:08.424Z,0.10
2023-02-22T03:46:45.405Z,0.30
2023-02-22T03:49:29.925Z,0.27
2023-02-22T03:51:58.338Z,0.22
2023-02-22T03:54:26.936Z,0.10
2023-02-22T04:00:24.477Z,0.30
2023-02-22T04:02:52.071Z,0.20
2023-02-22T04:05:21.429Z,0.20
2023-02-22T04:07:50.498Z,0.10
2023-02-22T04:10:17.562Z,0.28
2023-02-22T04:12:44.834Z,0.28
2023-02-22T04:15:15.441Z,0.37
2023-02-22T04:17:43.633Z,0.10
2023-02-22T04:20:16.466Z,0.20
2023-02-22T04:22:48.902Z,0.10
2023-02-22T04:25:16.137Z,0.63
2023-02-22T04:27:44.037Z,1.00
2023-02-22T04:30:12.298Z,0.70
2023-02-22T04:32:41.397Z,1.42
2023-02-22T04:35:10.596Z,0.50
2023-02-22T04:37:37.552Z,0.28
2023-02-22T04:40:07.597Z,0.50
2023-02-22T04:42:37.431Z,0.35
2023-02-22T04:45:07.238Z,0.32
2023-02-22T04:47:36.727Z,0.40
2023-02-22T04:50:12.459Z,0.20
2023-02-22T04:52:39.482Z,0.57
2023-02-22T04:55:06.628Z,0.20
2023-02-22T04:57:59.450Z,0.52
2023-02-22T05:00:27.072Z,0.30
2023-02-22T05:03:01.716Z,0.30
2023-02-22T05:05:30.068Z,0.27
2023-02-22T05:07:58.032Z,0.40
2023-02-22T05:10:25.209Z,0.40
2023-02-22T05:12:53.329Z,0.40
2023-02-22T05:15:22.389Z,0.55
2023-02-22T05:17:50.940Z,0.47
2023-02-22T05:20:25.549Z,0.40
2023-02-22T05:22:53.437Z,0.40
2023-02-22T05:25:24.618Z,0.40
2023-02-22T05:28:01.556Z,0.60
2023-02-22T05:30:31.680Z,0.40
2023-02-22T05:33:00.678Z,0.50
2023-02-22T05:35:29.059Z,0.55
2023-02-22T05:37:58.525Z,0.32
2023-02-22T05:40:27.093Z,0.65
2023-02-22T05:43:20.725Z,0.40
2023-02-22T05:45:47.601Z,0.47
2023-02-22T05:48:14.352Z,0.50
2023-02-22T05:50:43.609Z,0.43
2023-02-22T05:53:10.705Z,0.50
2023-02-22T05:55:39.041Z,0.60
2023-02-22T05:58:08.033Z,0.60
2023-02-22T06:00:34.821Z,0.85
2023-02-22T06:03:08.822Z,0.30
2023-02-22T06:05:40.389Z,0.50
2023-02-22T06:08:09.476Z,0.30
2023-02-22T06:10:36.706Z,0.50
2023-02-22T06:13:06.000Z,0.50
2023-02-22T06:15:33.137Z,0.45
2023-02-22T06:18:01.085Z,0.70
2023-02-22T06:20:31.317Z,0.50
2023-02-22T06:22:59.508Z,0.60
2023-02-22T06:25:30.723Z,0.60
2023-02-22T06:28:04.427Z,0.55
2023-02-22T06:30:31.384Z,0.45
2023-02-22T06:32:58.155Z,0.50
2023-02-22T06:35:26.537Z,0.30
2023-02-22T06:37:53.346Z,0.35
2023-02-22T06:40:21.191Z,0.82
2023-02-22T06:42:51.476Z,0.73
2023-02-22T06:45:18.626Z,0.90
2023-02-22T06:47:47.408Z,0.82
2023-02-22T06:50:28.900Z,0.88
2023-02-22T06:52:57.859Z,0.80
2023-02-22T06:55:27.930Z,0.90
2023-02-22T06:57:55.085Z,0.90
2023-02-22T07:00:24.878Z,0.73
2023-02-22T07:02:53.172Z,0.65
2023-02-22T07:05:22.633Z,0.85
2023-02-22T07:07:51.236Z,1.00
2023-02-22T07:10:28.063Z,1.00
2023-02-22T07:12:54.895Z,1.00
2023-02-22T07:15:28.527Z,1.10
2023-02-22T07:17:57.042Z,0.75
2023-02-22T07:20:27.963Z,0.80
2023-02-22T07:22:56.493Z,0.77
2023-02-22T07:25:24.137Z,0.77
2023-02-22T07:27:51.902Z,0.80
2023-02-22T07:30:26.489Z,0.80
2023-02-22T07:32:55.045Z,0.80
2023-02-22T07:35:29.407Z,1.17
2023-02-22T07:37:56.370Z,1.17
2023-02-22T07:40:24.661Z,1.70
2023-02-22T07:42:57.070Z,2.05
2023-02-22T07:45:26.826Z,2.38
2023-02-22T07:47:54.245Z,2.23
2023-02-22T07:50:22.617Z,2.55
2023-02-22T07:52:51.577Z,2.42
2023-02-22T07:55:21.964Z,2.08
2023-02-22T07:57:51.290Z,1.42
2023-02-22T08:00:39.789Z,1.60
2023-02-22T08:03:09.663Z,1.80
2023-02-22T08:05:38.586Z,2.13
2023-02-22T08:08:06.346Z,1.05
2023-02-22T08:10:34.846Z,1.02
2023-02-22T08:13:03.020Z,1.00
2023-02-22T08:15:32.711Z,0.98
2023-02-22T08:18:01.210Z,0.55
2023-02-22T08:20:29.363Z,0.30
2023-02-22T08:22:56.829Z,0.30
2023-02-22T08:25:26.758Z,0.40
2023-02-22T08:27:58.033Z,0.40
2023-02-22T08:30:25.654Z,0.20
2023-02-22T08:32:52.723Z,0.30
2023-02-22T08:35:21.334Z,0.30
2023-02-22T08:37:53.315Z,0.23
2023-02-22T08:40:25.180Z,0.20
2023-02-22T08:42:52.125Z,0.30
2023-02-22T08:45:18.975Z,0.20
2023-02-22T08:47:46.562Z,0.40
2023-02-22T08:50:20.836Z,0.30
2023-02-22T08:52:47.761Z,0.20
2023-02-22T08:55:14.610Z,0.30
2023-02-22T08:57:41.510Z,0.32
2023-02-22T09:00:08.860Z,0.28
2023-02-22T09:02:35.688Z,0.30
2023-02-22T09:05:02.655Z,0.40
2023-02-22T09:07:29.448Z,0.55
2023-02-22T09:09:56.288Z,0.50
2023-02-22T09:12:23.538Z,0.43
2023-02-22T09:14:50.370Z,0.60
2023-02-22T09:17:17.204Z,0.57
2023-02-22T09:19:44.108Z,0.45
2023-02-22T09:22:11.580Z,0.40
2023-02-22T09:24:38.450Z,0.60
2023-02-22T09:27:05.270Z,0.53
2023-02-22T09:29:32.037Z,0.30
2023-02-22T09:31:59.120Z,0.20
2023-02-22T09:34:26.088Z,0.20
2023-02-22T09:36:53.029Z,0.10
2023-02-22T09:39:19.814Z,0.10
2023-02-22T09:41:57.069Z,0.10
2023-02-22T09:44:37.680Z,0.20
2023-02-22T09:47:06.459Z,0.10
2023-02-22T09:49:44.733Z,0.20
2023-02-22T09:52:22.441Z,0.20
2023-02-22T09:55:01.982Z,0.15
2023-02-22T09:57:35.943Z,0.20
2023-02-22T10:00:15.325Z,0.10
2023-02-22T10:03:21.225Z,0.20
2023-02-22T10:06:00.776Z,0.20
2023-02-22T10:08:31.993Z,0.20
2023-02-22T10:11:20.716Z,0.30
2023-02-22T10:13:47.557Z,0.30
2023-02-22T10:16:29.226Z,0.80
2023-02-22T10:19:26.497Z,0.30
2023-02-22T10:21:59.940Z,0.30
2023-02-22T10:24:38.827Z,0.10
2023-02-22T10:27:18.678Z,0.20
2023-02-22T10:29:54.829Z,0.30
2023-02-22T10:32:31.666Z,0.40
2023-02-22T10:35:01.858Z,0.20
2023-02-22T10:37:34.407Z,0.30
2023-02-22T10:40:13.885Z,0.30
2023-02-22T10:42:40.675Z,0.60
2023-02-22T10:45:20.808Z,0.20
2023-02-22T10:47:48.057Z,0.57
2023-02-22T10:50:15.657Z,0.50
2023-02-22T10:52:42.547Z,0.50
2023-02-22T10:55:15.685Z,0.60
2023-02-22T10:57:47.327Z,0.53
2023-02-22T11:00:20.020Z,0.38
2023-02-22T11:02:53.298Z,0.30
2023-02-22T11:05:31.064Z,0.40
2023-02-22T11:08:16.456Z,0.40
2023-02-22T11:10:44.109Z,0.30
2023-02-22T11:13:18.290Z,0.50
2023-02-22T11:15:45.254Z,0.50
2023-02-22T11:18:34.020Z,0.40
2023-02-22T11:21:06.572Z,0.50
2023-02-22T11:23:36.690Z,0.40
2023-02-22T11:26:09.270Z,0.30
2023-02-22T11:28:37.391Z,0.40
2023-02-22T11:31:21.267Z,1.02
2023-02-22T11:34:00.301Z,0.60
2023-02-22T11:36:42.693Z,0.37
2023-02-22T11:39:24.677Z,0.52
2023-02-22T11:41:51.515Z,0.60
2023-02-22T11:44:30.681Z,0.73
2023-02-22T11:47:00.600Z,0.82
2023-02-22T11:49:37.154Z,0.90
2023-02-22T11:52:27.146Z,0.90
2023-02-22T11:55:42.299Z,0.85
2023-02-22T11:58:47.999Z,0.85
2023-02-22T12:01:27.015Z,0.85
2023-02-22T12:04:18.336Z,0.70
2023-02-22T12:07:22.017Z,0.50
2023-02-22T12:09:56.036Z,0.60
2023-02-22T12:13:00.796Z,0.50
2023-02-22T12:15:51.323Z,0.80
2023-02-22T12:18:41.230Z,0.90
2023-02-22T12:21:15.119Z,0.85
2023-02-22T12:23:52.420Z,1.08
2023-02-22T12:26:40.200Z,1.00
2023-02-22T12:29:12.393Z,1.60
2023-02-22T12:31:46.581Z,0.90
2023-02-22T12:34:29.395Z,1.02
2023-02-22T12:37:18.326Z,1.00
2023-02-22T12:40:03.337Z,1.10
2023-02-22T12:42:33.568Z,0.90
2023-02-22T12:45:10.364Z,1.30
2023-02-22T12:47:46.058Z,0.70
2023-02-22T12:50:21.823Z,1.00
2023-02-22T12:53:08.435Z,0.93
2023-02-22T12:55:47.664Z,0.73
2023-02-22T12:58:37.866Z,0.80
2023-02-22T13:01:12.269Z,0.85
2023-02-22T13:03:42.289Z,1.00
2023-02-22T13:06:30.591Z,0.90
2023-02-22T13:09:16.262Z,0.70
2023-02-22T13:11:58.196Z,0.60
2023-02-22T13:14:54.679Z,0.98
2023-02-22T13:17:30.578Z,0.80
2023-02-22T13:20:00.299Z,0.52
2023-02-22T13:22:41.873Z,0.85
2023-02-22T13:25:14.221Z,0.60
2023-02-22T13:28:01.372Z,0.60
2023-02-22T13:30:39.103Z,1.00
2023-02-22T13:33:19.607Z,0.90
2023-02-22T13:36:01.503Z,0.90
2023-02-22T13:38:34.102Z,1.17
2023-02-22T13:41:19.562Z,0.52
2023-02-22T13:43:56.252Z,0.63
2023-02-22T13:46:58.182Z,0.70
2023-02-22T13:49:36.912Z,0.52
2023-02-22T13:52:27.236Z,0.83
2023-02-22T13:55:01.233Z,0.80
2023-02-22T13:57:35.262Z,0.82
2023-02-22T14:00:40.300Z,1.00
2023-02-22T14:03:13.310Z,0.65
2023-02-22T14:05:40.435Z,0.80
2023-02-22T14:08:13.984Z,0.70
2023-02-22T14:10:43.649Z,0.77
2023-02-22T14:13:11.602Z,0.82
2023-02-22T14:16:01.656Z,0.90
2023-02-22T14:18:41.542Z,0.87
2023-02-22T14:21:15.763Z,1.10
2023-02-22T14:23:51.029Z,1.17
2023-02-22T14:26:24.789Z,1.00
2023-02-22T14:28:55.055Z,0.90
2023-02-22T14:31:36.886Z,1.10
2023-02-22T14:34:16.103Z,1.10
2023-02-22T14:36:56.209Z,1.30
2023-02-22T14:39:37.912Z,1.10
2023-02-22T14:42:19.875Z,1.30
2023-02-22T14:45:10.453Z,1.53
2023-02-22T14:47:40.250Z,1.50
2023-02-22T14:50:12.776Z,1.60
2023-02-22T14:52:42.816Z,1.67
2023-02-22T14:55:24.330Z,1.50
2023-02-22T14:58:19.712Z,1.70
2023-02-22T15:00:49.091Z,1.10
2023-02-22T15:03:30.205Z,1.40
2023-02-22T15:05:57.256Z,1.80
2023-02-22T15:08:24.106Z,1.08
2023-02-22T15:10:51.931Z,1.20
2023-02-22T15:13:24.989Z,1.08
2023-02-22T15:16:00.510Z,1.13
2023-02-22T15:18:41.007Z,1.00
2023-02-22T15:21:21.192Z,1.40
2023-02-22T15:23:51.238Z,1.30
2023-02-22T15:26:26.832Z,1.15
2023-02-22T15:28:58.995Z,1.20
2023-02-22T15:31:35.445Z,1.15
2023-02-22T15:34:23.869Z,1.10
2023-02-22T15:36:53.897Z,1.10
2023-02-22T15:39:26.735Z,1.20
2023-02-22T15:42:08.697Z,1.83
2023-02-22T15:44:40.906Z,1.65
2023-02-22T15:47:16.449Z,1.30
2023-02-22T15:49:43.419Z,1.53
2023-02-22T15:52:22.357Z,1.35
2023-02-22T15:54:51.846Z,1.10
2023-02-22T15:57:21.929Z,1.20
2023-02-22T15:59:52.327Z,1.15
2023-02-22T16:02:42.191Z,1.17
2023-02-22T16:05:15.475Z,1.33
2023-02-22T16:07:47.099Z,1.10
2023-02-22T16:10:47.658Z,1.13
2023-02-22T16:13:31.507Z,1.00
2023-02-22T16:16:22.076Z,1.20
2023-02-22T16:18:50.735Z,1.08
2023-02-22T16:21:22.812Z,1.00
2023-02-22T16:24:01.333Z,1.08
2023-02-22T16:26:35.475Z,0.95
2023-02-22T16:29:05.965Z,0.80
2023-02-22T16:31:38.128Z,1.10
2023-02-22T16:34:10.418Z,1.33
2023-02-22T16:36:46.723Z,1.13
2023-02-22T16:39:24.426Z,1.30
2023-02-22T16:41:51.920Z,1.50
2023-02-22T16:44:19.217Z,1.20
2023-02-22T16:46:46.056Z,1.40
2023-02-22T16:49:13.643Z,1.30
2023-02-22T16:51:58.654Z,1.38
2023-02-22T16:54:29.912Z,1.67
2023-02-22T16:56:58.330Z,2.03
2023-02-22T16:59:25.215Z,1.80
2023-02-22T17:01:52.082Z,1.83
2023-02-22T17:04:24.205Z,2.13
2023-02-22T17:06:52.455Z,1.90
2023-02-22T17:09:20.022Z,2.10
2023-02-22T17:11:50.771Z,2.22
2023-02-22T17:14:23.144Z,2.22
2023-02-22T17:16:51.412Z,2.20
2023-02-22T17:19:26.288Z,2.63
2023-02-22T17:21:53.635Z,2.70
2023-02-22T17:24:25.171Z,2.65
2023-02-22T17:26:52.472Z,2.63
2023-02-22T17:29:20.663Z,2.90
2023-02-22T17:31:48.058Z,3.07
2023-02-22T17:34:15.818Z,2.70
2023-02-22T17:36:42.766Z,3.03
2023-02-22T17:39:10.104Z,3.40
2023-02-22T17:41:40.693Z,3.30
2023-02-22T17:44:08.614Z,3.53
2023-02-22T17:46:38.859Z,3.28
2023-02-22T17:49:06.463Z,3.67
2023-02-22T17:51:33.954Z,3.53
2023-02-22T17:54:01.168Z,3.40
2023-02-22T17:56:28.456Z,3.33
2023-02-22T17:58:56.312Z,3.47
2023-02-22T18:01:29.794Z,3.20
2023-02-22T18:04:00.835Z,3.10
2023-02-22T18:06:30.576Z,3.10
2023-02-22T18:09:00.356Z,2.97
2023-02-22T18:11:29.403Z,2.70
2023-02-22T18:13:57.917Z,3.10
2023-02-22T18:16:26.662Z,3.13
2023-02-22T18:18:55.482Z,3.40
2023-02-22T18:21:23.809Z,2.97
2023-02-22T18:23:51.040Z,3.10
2023-02-22T18:26:20.981Z,2.88
2023-02-22T18:28:48.837Z,2.88
2023-02-22T18:31:19.791Z,3.20
2023-02-22T18:33:50.999Z,3.20
2023-02-22T18:36:20.926Z,3.45
2023-02-22T18:38:48.623Z,3.05
2023-02-22T18:41:18.482Z,3.10
2023-02-22T18:43:46.955Z,3.35
2023-02-22T18:46:16.946Z,3.40
2023-02-22T18:48:46.062Z,3.28
2023-02-22T18:51:16.251Z,3.50
2023-02-22T18:53:47.738Z,3.38
2023-02-22T18:56:19.164Z,3.35
2023-02-22T18:58:47.334Z,3.77
2023-02-22T19:01:19.823Z,4.03
2023-02-22T19:03:47.607Z,3.88
2023-02-22T19:06:17.872Z,3.88
2023-02-22T19:08:46.997Z,4.40
2023-02-22T19:11:21.339Z,4.20
2023-02-22T19:13:52.712Z,3.88
2023-02-22T19:16:22.359Z,4.20
2023-02-22T19:18:52.697Z,4.00
2023-02-22T19:21:21.361Z,3.90
2023-02-22T19:23:49.877Z,3.83
2023-02-22T19:26:26.546Z,4.03
2023-02-22T19:28:56.424Z,3.83
2023-02-22T19:31:28.986Z,3.92
2023-02-22T19:34:00.713Z,4.25
2023-02-22T19:36:28.903Z,4.40
2023-02-22T19:38:59.110Z,4.20
2023-02-22T19:41:26.347Z,4.18
2023-02-22T19:43:57.350Z,4.28
2023-02-22T19:46:25.585Z,4.10
2023-02-22T19:48:54.790Z,4.80
2023-02-22T19:51:25.100Z,4.90
2023-02-22T19:53:56.120Z,5.03
2023-02-22T19:56:24.024Z,4.70
2023-02-22T19:58:53.207Z,4.55
2023-02-22T20:01:24.934Z,4.57
2023-02-22T20:04:01.890Z,4.47
2023-02-22T20:06:33.592Z,5.00
2023-02-22T20:09:02.525Z,5.03
2023-02-22T20:11:30.485Z,5.20
2023-02-22T20:13:58.358Z,5.37
2023-02-22T20:16:26.178Z,5.18
2023-02-22T20:18:56.904Z,5.40
2023-02-22T20:21:33.415Z,5.50
2023-02-22T20:24:03.108Z,6.10
2023-02-22T20:26:33.787Z,5.70
2023-02-22T20:29:04.894Z,6.18
2023-02-22T20:31:34.167Z,5.85
2023-02-22T20:34:03.019Z,5.55
2023-02-22T20:36:33.377Z,5.47
2023-02-22T20:39:03.536Z,5.97
2023-02-22T20:41:33.875Z,5.30
2023-02-22T20:44:03.063Z,5.72
2023-02-22T20:46:33.256Z,5.57
2023-02-22T20:49:02.845Z,5.22
2023-02-22T20:51:31.361Z,5.50
2023-02-22T20:54:01.411Z,5.90
2023-02-22T20:56:33.604Z,6.13
2023-02-22T20:59:04.379Z,6.15
2023-02-22T21:01:32.588Z,5.68
2023-02-22T21:04:05.731Z,6.00
2023-02-22T21:06:34.914Z,6.32
2023-02-22T21:09:04.753Z,6.65
2023-02-22T21:11:32.482Z,6.03
2023-02-22T21:14:02.898Z,6.25
2023-02-22T21:16:36.286Z,5.50
2023-02-22T21:19:08.172Z,6.20
2023-02-22T21:21:36.598Z,6.28
2023-02-22T21:24:04.524Z,6.07
2023-02-22T21:26:35.201Z,6.05
2023-02-22T21:29:06.226Z,5.37
2023-02-22T21:31:34.568Z,5.63
2023-02-22T21:34:02.710Z,6.03
2023-02-22T21:36:31.186Z,5.72
2023-02-22T21:39:01.692Z,5.60
2023-02-22T21:41:31.591Z,5.57
2023-02-22T21:43:59.589Z,5.95
2023-02-22T21:46:29.144Z,5.45
2023-02-22T21:48:58.505Z,5.68
2023-02-22T21:51:29.274Z,5.70
2023-02-22T21:53:56.248Z,5.80
2023-02-22T21:56:25.934Z,5.93
2023-02-22T21:58:57.606Z,5.72
2023-02-22T22:01:29.669Z,5.78
2023-02-22T22:03:58.714Z,5.43
2023-02-22T22:06:28.059Z,5.63
2023-02-22T22:08:57.034Z,5.78
2023-02-22T22:11:24.050Z,5.90
2023-02-22T22:13:53.299Z,5.82
2023-02-22T22:16:20.498Z,6.10
2023-02-22T22:18:47.349Z,6.00
2023-02-22T22:21:19.819Z,5.40
2023-02-22T22:23:48.070Z,6.00
2023-02-22T22:26:18.061Z,5.00
2023-02-22T22:28:50.339Z,5.53
2023-02-22T22:31:20.271Z,5.70
2023-02-22T22:33:48.075Z,5.95
2023-02-22T22:36:17.139Z,5.53
2023-02-22T22:38:44.840Z,5.43
2023-02-22T22:41:11.758Z,5.30
2023-02-22T22:43:39.241Z,6.00
2023-02-22T22:46:07.648Z,5.43
2023-02-22T22:48:36.574Z,6.05
2023-02-22T22:51:06.826Z,5.55
2023-02-22T22:53:34.559Z,5.80
2023-02-22T22:56:07.208Z,6.03
2023-02-22T22:58:35.465Z,6.20
2023-02-22T23:01:03.008Z,5.63
2023-02-22T23:03:30.358Z,5.50
2023-02-22T23:06:01.881Z,5.97
2023-02-22T23:08:28.769Z,5.37
2023-02-22T23:10:56.806Z,6.10
2023-02-22T23:13:24.039Z,5.65
2023-02-22T23:15:51.098Z,5.93
2023-02-22T23:18:17.921Z,6.15
2023-02-22T23:20:44.823Z,5.80
2023-02-22T23:23:11.653Z,5.78
2023-02-22T23:25:38.551Z,6.13
2023-02-22T23:28:05.463Z,5.97
2023-02-22T23:30:32.339Z,6.43
2023-02-22T23:32:59.185Z,6.60
2023-02-22T23:35:26.217Z,6.50
2023-02-22T23:37:53.054Z,5.90
2023-02-22T23:40:19.890Z,6.30
2023-02-22T23:42:50.804Z,6.65
2023-02-22T23:45:18.416Z,6.90
2023-02-22T23:47:45.238Z,6.65
2023-02-22T23:50:12.107Z,6.75
2023-02-22T23:52:39.018Z,6.72
2023-02-22T23:55:06.161Z,6.82
2023-02-22T23:57:33.026Z,6.47
2023-02-22T23:59:59.887Z,6.95
